Time;durP1;ratioP1;P1;durP2;ratioP2;P2;SDS_P1;SDS_P2;PMS_P1;PMS_P2;Temp;Humidity;BMP_temperature;BMP_pressure;BME280_temperature;BME280_humidity;BME280_pressure;Samples;Min_cycle;Max_cycle;Signal;HPM_P1;HPM_P2
2021/01/12 00:02:01;;;;;;;23.63;12.50;;;0.90;99.90;;;;;;5025287;28;20227;-83
2021/01/12 00:04:29;;;;;;;25.08;13.90;;;0.70;99.90;;;;;;5043379;28;20227;-83
2021/01/12 00:06:55;;;;;;;21.33;12.82;;;0.90;99.90;;;;;;5045918;28;20211;-82
2021/01/12 00:09:22;;;;;;;24.30;14.65;;;1.00;99.90;;;;;;5041694;28;20210;-84
2021/01/12 00:11:48;;;;;;;21.17;12.40;;;0.80;99.90;;;;;;5037261;28;20227;-85
2021/01/12 00:14:34;;;;;;;23.90;12.95;;;1.00;99.90;;;;;;5024680;28;20268;-83
2021/01/12 00:17:04;;;;;;;24.48;14.15;;;0.90;99.90;;;;;;5013915;28;20203;-82
2021/01/12 00:19:31;;;;;;;20.90;13.20;;;0.90;99.90;;;;;;5033181;28;20212;-83
2021/01/12 00:21:59;;;;;;;22.52;13.60;;;1.00;99.90;;;;;;5032218;28;20227;-83
2021/01/12 00:24:26;;;;;;;19.40;12.65;;;1.00;99.90;;;;;;5042692;28;20207;-83
2021/01/12 00:26:53;;;;;;;21.05;12.80;;;1.20;99.90;;;;;;5042279;28;20211;-82
2021/01/12 00:29:20;;;;;;;24.27;12.82;;;1.20;99.90;;;;;;5049045;28;20208;-83
2021/01/12 00:31:47;;;;;;;23.58;13.15;;;1.30;99.90;;;;;;5040443;28;20215;-83
2021/01/12 00:34:14;;;;;;;25.33;13.10;;;1.40;99.90;;;;;;5044612;28;20199;-82
2021/01/12 00:36:43;;;;;;;23.70;14.10;;;1.50;99.90;;;;;;5033312;28;20204;-82
2021/01/12 00:39:10;;;;;;;23.60;13.90;;;1.30;99.90;;;;;;5029088;28;20279;-82
2021/01/12 00:41:36;;;;;;;21.70;12.55;;;1.40;99.90;;;;;;5046320;28;20228;-82
2021/01/12 00:44:04;;;;;;;23.20;13.70;;;1.30;99.90;;;;;;5041989;28;20219;-82
2021/01/12 00:46:31;;;;;;;19.45;11.48;;;1.40;99.90;;;;;;5044360;28;20207;-83
2021/01/12 00:48:57;;;;;;;23.98;13.88;;;1.30;99.90;;;;;;5029666;28;20207;-83
2021/01/12 00:51:33;;;;;;;25.23;12.10;;;1.40;99.90;;;;;;5039526;28;20203;-82
2021/01/12 00:54:01;;;;;;;22.35;12.93;;;1.30;99.90;;;;;;5047588;28;20203;-82
2021/01/12 00:56:28;;;;;;;21.17;12.35;;;1.30;99.90;;;;;;5033972;28;20207;-81
2021/01/12 00:58:54;;;;;;;22.70;11.57;;;1.10;99.90;;;;;;5024161;28;20219;-82
2021/01/12 01:01:21;;;;;;;23.17;12.88;;;1.20;99.90;;;;;;5040266;28;20199;-82
2021/01/12 01:03:48;;;;;;;22.40;12.43;;;1.20;99.90;;;;;;5034088;28;20204;-83
2021/01/12 01:06:14;;;;;;;18.63;12.02;;;1.30;99.90;;;;;;5013217;28;20204;-83
2021/01/12 01:08:41;;;;;;;20.70;12.25;;;1.50;99.90;;;;;;5020258;28;20207;-83
2021/01/12 01:11:08;;;;;;;20.08;12.30;;;1.50;99.90;;;;;;5033276;28;20205;-83
2021/01/12 01:13:35;;;;;;;18.05;10.85;;;1.40;99.90;;;;;;5036072;28;20242;-80
2021/01/12 01:16:01;;;;;;;19.95;12.00;;;1.40;99.90;;;;;;5022910;28;20207;-82
2021/01/12 01:18:28;;;;;;;18.45;10.52;;;1.50;99.90;;;;;;5023193;28;20409;-82
2021/01/12 01:20:55;;;;;;;16.80;10.85;;;1.60;99.90;;;;;;5024460;28;20562;-82
2021/01/12 01:23:21;;;;;;;18.08;11.88;;;1.50;99.90;;;;;;5024761;28;20228;-81
2021/01/12 01:25:49;;;;;;;17.75;11.38;;;1.50;99.90;;;;;;5027220;28;20227;-83
2021/01/12 01:28:17;;;;;;;22.13;11.25;;;1.60;99.90;;;;;;5028242;28;20248;-82
2021/01/12 01:30:44;;;;;;;18.35;10.63;;;1.60;99.90;;;;;;5044227;28;20634;-83
2021/01/12 01:33:10;;;;;;;20.00;11.27;;;1.70;99.90;;;;;;5022032;28;20231;-84
2021/01/12 01:35:37;;;;;;;19.33;10.95;;;1.70;99.90;;;;;;4997467;28;20217;-83
2021/01/12 01:38:03;;;;;;;20.27;11.07;;;1.60;99.90;;;;;;5026699;28;20223;-84
2021/01/12 01:40:31;;;;;;;19.73;11.05;;;1.50;99.90;;;;;;5029725;28;20362;-82
2021/01/12 01:42:58;;;;;;;16.13;10.23;;;1.60;99.90;;;;;;5041877;28;20267;-83
2021/01/12 01:45:25;;;;;;;20.35;10.70;;;1.50;99.90;;;;;;5043212;28;20223;-83
2021/01/12 01:47:53;;;;;;;15.07;10.13;;;1.70;99.90;;;;;;5040654;28;20234;-83
2021/01/12 01:50:21;;;;;;;21.00;10.38;;;1.60;99.90;;;;;;4997623;28;20486;-83
2021/01/12 01:52:51;;;;;;;19.55;10.45;;;1.60;99.90;;;;;;4996150;28;20235;-83
2021/01/12 01:55:18;;;;;;;16.40;9.68;;;1.60;99.90;;;;;;5026398;28;20217;-83
2021/01/12 01:57:44;;;;;;;17.85;10.10;;;1.50;99.90;;;;;;5035869;28;20207;-83
2021/01/12 02:00:14;;;;;;;15.85;9.90;;;1.60;99.90;;;;;;5022924;28;20783;-82
2021/01/12 02:02:50;;;;;;;17.05;10.80;;;1.80;99.90;;;;;;5016249;28;20228;-82
2021/01/12 02:05:20;;;;;;;15.00;9.15;;;1.70;99.90;;;;;;5016004;28;20283;-81
2021/01/12 02:07:47;;;;;;;18.13;10.10;;;1.60;99.90;;;;;;5020004;28;20206;-84
2021/01/12 02:10:18;;;;;;;16.05;9.95;;;1.60;99.90;;;;;;5021550;28;20555;-82
2021/01/12 02:12:48;;;;;;;16.38;9.30;;;1.60;99.90;;;;;;5025038;28;20293;-84
2021/01/12 02:15:20;;;;;;;16.25;10.15;;;1.60;99.90;;;;;;5044608;28;20208;-84
2021/01/12 02:17:49;;;;;;;15.20;9.90;;;1.50;99.90;;;;;;5047451;28;20196;-83
2021/01/12 02:20:16;;;;;;;17.42;9.50;;;1.70;99.90;;;;;;5031232;28;20673;-83
2021/01/12 02:22:47;;;;;;;16.67;9.20;;;1.80;99.90;;;;;;5024699;28;20212;-83
2021/01/12 02:25:17;;;;;;;15.43;8.65;;;1.70;99.90;;;;;;5022409;28;20315;-83
2021/01/12 02:27:44;;;;;;;15.45;8.88;;;1.70;99.90;;;;;;5036885;28;20203;-83
2021/01/12 02:30:12;;;;;;;15.00;8.02;;;1.70;99.90;;;;;;5022460;28;20338;-83
2021/01/12 02:32:39;;;;;;;14.10;8.27;;;1.70;99.90;;;;;;5022363;28;20235;-83
2021/01/12 02:35:07;;;;;;;17.08;9.15;;;1.90;99.90;;;;;;5021030;28;20199;-84
2021/01/12 02:37:37;;;;;;;14.10;8.30;;;2.00;99.90;;;;;;5007762;28;20195;-83
2021/01/12 02:40:05;;;;;;;14.80;9.20;;;1.80;99.90;;;;;;5037348;28;20212;-84
2021/01/12 02:42:33;;;;;;;16.05;7.72;;;1.80;99.90;;;;;;5022325;28;20257;-84
2021/01/12 02:44:59;;;;;;;15.45;8.45;;;1.90;99.90;;;;;;5033930;28;20218;-84
2021/01/12 02:47:26;;;;;;;12.95;7.30;;;1.80;99.90;;;;;;5037412;28;20200;-84
2021/01/12 02:49:52;;;;;;;16.48;8.15;;;2.00;99.90;;;;;;5017803;28;20282;-83
2021/01/12 02:52:19;;;;;;;14.52;8.32;;;2.00;99.90;;;;;;5031971;28;20276;-83
2021/01/12 02:54:46;;;;;;;11.40;5.05;;;2.10;99.90;;;;;;5034586;28;20214;-83
2021/01/12 02:57:12;;;;;;;13.48;7.75;;;2.00;99.90;;;;;;5017477;28;20212;-84
2021/01/12 02:59:40;;;;;;;13.20;8.10;;;2.00;99.90;;;;;;5017195;28;20230;-83
2021/01/12 03:02:07;;;;;;;14.43;8.77;;;2.00;99.90;;;;;;5031329;28;20226;-83
2021/01/12 03:04:33;;;;;;;12.73;7.07;;;1.90;99.90;;;;;;5030275;28;20309;-83
2021/01/12 03:07:00;;;;;;;11.88;7.35;;;2.00;99.90;;;;;;5050949;28;20214;-83
2021/01/12 03:09:26;;;;;;;13.00;7.47;;;1.90;99.90;;;;;;5051530;28;20215;-83
2021/01/12 03:11:53;;;;;;;12.60;7.43;;;2.10;99.90;;;;;;5046647;28;20231;-83
2021/01/12 03:14:20;;;;;;;15.73;8.35;;;2.00;99.90;;;;;;5044708;28;20573;-83
2021/01/12 03:16:48;;;;;;;14.05;7.65;;;2.20;99.90;;;;;;5026386;28;20204;-83
2021/01/12 03:19:14;;;;;;;12.13;7.10;;;2.10;99.90;;;;;;5046309;28;20211;-83
2021/01/12 03:21:41;;;;;;;13.15;7.30;;;2.10;99.90;;;;;;5045969;28;20231;-83
2021/01/12 03:24:08;;;;;;;11.93;6.95;;;1.90;99.90;;;;;;5046470;28;20234;-83
2021/01/12 03:26:34;;;;;;;13.35;7.20;;;2.40;99.90;;;;;;5042509;28;20207;-83
2021/01/12 03:29:01;;;;;;;12.43;7.05;;;2.20;99.90;;;;;;5038430;28;20748;-82
2021/01/12 03:31:28;;;;;;;11.70;6.95;;;2.20;99.90;;;;;;5016877;28;20230;-83
2021/01/12 03:33:55;;;;;;;9.68;6.38;;;2.30;99.90;;;;;;5018385;28;20215;-83
2021/01/12 03:36:22;;;;;;;9.45;6.43;;;2.30;99.90;;;;;;5034941;28;20199;-83
2021/01/12 03:38:49;;;;;;;10.45;6.50;;;2.00;99.90;;;;;;5027268;28;20225;-83
2021/01/12 03:41:16;;;;;;;11.25;6.60;;;2.30;99.90;;;;;;5017937;28;20261;-83
2021/01/12 03:43:42;;;;;;;12.23;5.88;;;2.30;99.90;;;;;;5019449;28;20207;-83
2021/01/12 03:46:09;;;;;;;10.35;6.47;;;2.40;99.90;;;;;;5023163;28;20232;-82
2021/01/12 03:48:36;;;;;;;11.90;6.72;;;2.60;99.90;;;;;;5022817;28;20287;-84
2021/01/12 03:51:03;;;;;;;11.05;6.05;;;2.60;99.90;;;;;;5018488;28;20204;-84
2021/01/12 03:53:30;;;;;;;10.90;6.22;;;2.50;99.90;;;;;;5035386;28;20234;-84
2021/01/12 03:55:56;;;;;;;11.52;6.93;;;2.30;99.90;;;;;;5038576;28;20208;-84
2021/01/12 03:58:23;;;;;;;10.40;5.35;;;2.40;99.90;;;;;;5027145;28;20261;-83
2021/01/12 04:00:49;;;;;;;9.30;5.40;;;2.50;99.90;;;;;;5029026;28;20199;-82
2021/01/12 04:03:16;;;;;;;13.93;6.43;;;2.40;99.90;;;;;;5040953;28;20223;-82
2021/01/12 04:05:42;;;;;;;8.95;5.57;;;2.40;99.90;;;;;;5032791;28;20301;-84
2021/01/12 04:08:11;;;;;;;10.50;6.80;;;2.60;99.90;;;;;;5026249;28;20206;-82
2021/01/12 04:10:38;;;;;;;11.23;6.50;;;2.60;99.90;;;;;;5037386;28;20200;-82
2021/01/12 04:13:05;;;;;;;11.95;6.13;;;2.50;99.90;;;;;;5029724;28;20287;-82
2021/01/12 04:15:31;;;;;;;10.32;5.30;;;2.50;99.90;;;;;;5035502;28;20206;-81
2021/01/12 04:17:58;;;;;;;10.70;5.75;;;2.70;99.90;;;;;;5046028;28;20210;-83
2021/01/12 04:20:25;;;;;;;12.27;6.32;;;2.70;99.90;;;;;;5037484;28;20662;-82
2021/01/12 04:22:52;;;;;;;11.38;5.68;;;2.80;99.90;;;;;;5044205;28;20231;-82
2021/01/12 04:25:20;;;;;;;11.38;6.45;;;2.70;99.90;;;;;;5034359;28;20219;-81
2021/01/12 04:27:47;;;;;;;10.05;6.03;;;2.50;99.90;;;;;;5021725;28;20733;-84
2021/01/12 04:30:14;;;;;;;9.90;5.38;;;2.60;99.90;;;;;;5017705;28;20565;-83
2021/01/12 04:32:41;;;;;;;12.00;6.70;;;2.60;99.90;;;;;;5019888;28;20298;-83
2021/01/12 04:35:09;;;;;;;10.80;5.95;;;2.60;99.90;;;;;;5036769;28;20656;-85
2021/01/12 04:37:35;;;;;;;11.48;6.90;;;2.70;99.90;;;;;;5033757;28;20263;-83
2021/01/12 04:40:03;;;;;;;9.18;4.95;;;2.90;99.90;;;;;;5017403;28;20208;-83
2021/01/12 04:42:32;;;;;;;12.65;7.03;;;2.80;99.90;;;;;;5037177;28;20243;-82
2021/01/12 04:45:00;;;;;;;9.15;6.15;;;2.80;99.90;;;;;;5036164;28;20250;-85
2021/01/12 04:47:27;;;;;;;9.38;5.43;;;2.90;99.90;;;;;;5020953;28;20204;-84
2021/01/12 04:49:54;;;;;;;9.55;6.15;;;2.80;99.90;;;;;;5023298;28;20204;-82
2021/01/12 04:52:20;;;;;;;10.57;5.95;;;2.80;99.90;;;;;;5025549;28;21523;-83
2021/01/12 04:54:49;;;;;;;8.88;5.22;;;2.80;99.90;;;;;;5040198;28;20210;-83
2021/01/12 04:57:16;;;;;;;8.68;5.95;;;2.80;99.90;;;;;;5048351;28;20218;-83
2021/01/12 04:59:44;;;;;;;12.30;5.18;;;2.80;99.90;;;;;;5038397;28;20204;-83
2021/01/12 05:02:13;;;;;;;11.77;5.65;;;2.80;99.90;;;;;;5028027;28;20272;-84
2021/01/12 05:04:42;;;;;;;11.75;6.25;;;2.60;99.90;;;;;;5020435;28;20277;-82
2021/01/12 05:07:09;;;;;;;23.92;10.50;;;2.70;99.90;;;;;;5000728;28;20204;-82
2021/01/12 05:09:38;;;;;;;14.15;7.63;;;2.60;99.90;;;;;;5035662;28;20203;-82
2021/01/12 05:12:07;;;;;;;14.35;7.00;;;2.80;99.90;;;;;;5037286;28;20223;-82
2021/01/12 05:14:38;;;;;;;12.38;6.63;;;2.60;99.90;;;;;;5025114;28;20211;-82
2021/01/12 05:17:06;;;;;;;10.88;6.00;;;2.80;99.90;;;;;;5046489;28;20199;-82
2021/01/12 05:19:33;;;;;;;11.15;6.35;;;2.70;99.90;;;;;;5036151;28;20204;-83
2021/01/12 05:22:03;;;;;;;10.95;6.80;;;2.60;99.90;;;;;;5018878;28;20270;-83
2021/01/12 05:24:38;;;;;;;9.82;5.78;;;2.70;99.90;;;;;;5019084;28;20219;-82
2021/01/12 05:27:07;;;;;;;13.23;7.07;;;2.60;99.90;;;;;;5019130;28;20199;-82
2021/01/12 05:29:35;;;;;;;11.48;6.40;;;2.70;99.90;;;;;;5026571;28;20208;-82
2021/01/12 05:32:03;;;;;;;10.85;6.53;;;2.80;99.90;;;;;;5025713;28;20315;-83
2021/01/12 05:34:35;;;;;;;12.32;6.43;;;2.60;99.90;;;;;;4999928;28;20315;-82
2021/01/12 05:37:04;;;;;;;11.32;5.78;;;2.80;99.90;;;;;;5016751;28;20199;-82
2021/01/12 05:39:37;;;;;;;14.25;6.85;;;2.70;99.90;;;;;;5019648;28;20208;-81
2021/01/12 05:42:06;;;;;;;8.95;5.70;;;3.00;99.90;;;;;;5033790;28;20321;-82
2021/01/12 05:44:37;;;;;;;10.65;5.75;;;2.90;99.90;;;;;;5028224;28;20252;-82
2021/01/12 05:47:04;;;;;;;9.32;5.80;;;2.60;99.90;;;;;;5018202;28;20202;-82
2021/01/12 05:49:32;;;;;;;11.50;6.75;;;2.80;99.90;;;;;;5032870;28;20210;-82
2021/01/12 05:51:58;;;;;;;11.55;6.70;;;2.70;99.90;;;;;;5030211;28;20223;-83
2021/01/12 05:54:33;;;;;;;13.93;6.75;;;2.80;99.90;;;;;;5022118;28;20203;-82
2021/01/12 05:57:01;;;;;;;11.75;6.25;;;2.80;99.90;;;;;;5022960;28;20621;-82
2021/01/12 05:59:29;;;;;;;11.50;6.40;;;2.80;99.90;;;;;;5026299;28;20210;-83
2021/01/12 06:01:57;;;;;;;8.93;5.70;;;3.00;99.90;;;;;;5023308;28;20733;-83
2021/01/12 06:04:24;;;;;;;10.98;6.03;;;3.10;99.90;;;;;;5026639;28;20227;-82
2021/01/12 06:06:53;;;;;;;12.63;8.27;;;2.90;99.90;;;;;;5026957;28;20207;-83
2021/01/12 06:09:20;;;;;;;8.77;5.68;;;3.00;99.90;;;;;;5037634;28;20234;-82
2021/01/12 06:11:49;;;;;;;10.32;5.55;;;2.90;99.90;;;;;;5025488;28;20230;-83
2021/01/12 06:14:17;;;;;;;9.23;5.35;;;2.90;99.90;;;;;;5023775;28;20419;-85
2021/01/12 06:16:45;;;;;;;8.63;4.90;;;3.10;99.90;;;;;;5027620;28;20234;-83
2021/01/12 06:19:17;;;;;;;7.97;5.03;;;3.20;99.90;;;;;;5040942;28;20212;-83
2021/01/12 06:22:17;;;;;;;13.10;5.90;;;3.20;99.90;;;;;;5038408;28;20219;-82
2021/01/12 06:25:03;;;;;;;11.52;5.75;;;3.10;99.90;;;;;;5028329;28;20262;-82
2021/01/12 06:27:32;;;;;;;10.80;5.45;;;3.20;99.90;;;;;;5032830;28;20200;-82
2021/01/12 06:30:00;;;;;;;10.88;6.25;;;3.40;99.90;;;;;;5021999;28;20208;-83
2021/01/12 06:32:29;;;;;;;9.45;5.72;;;3.10;99.90;;;;;;5045295;28;20246;-83
2021/01/12 06:34:57;;;;;;;9.50;5.30;;;3.20;99.90;;;;;;5045393;28;20275;-82
2021/01/12 06:37:25;;;;;;;9.82;5.80;;;3.00;99.90;;;;;;5029728;28;20204;-82
2021/01/12 06:39:53;;;;;;;11.32;6.43;;;3.00;99.90;;;;;;5029605;28;20812;-82
2021/01/12 06:42:25;;;;;;;10.38;5.85;;;3.20;99.90;;;;;;5027273;28;20298;-82
2021/01/12 06:44:53;;;;;;;10.52;5.72;;;3.20;99.90;;;;;;5027838;28;20235;-83
2021/01/12 06:47:22;;;;;;;9.20;5.00;;;3.30;99.90;;;;;;5028181;28;20231;-83
2021/01/12 06:49:49;;;;;;;9.70;5.50;;;3.20;99.90;;;;;;5027645;28;20231;-83
2021/01/12 06:52:16;;;;;;;8.57;4.88;;;3.10;99.90;;;;;;5028631;28;20219;-82
2021/01/12 06:54:45;;;;;;;13.82;5.93;;;3.00;99.90;;;;;;5029049;28;20341;-83
2021/01/12 06:57:12;;;;;;;9.13;5.45;;;3.10;99.90;;;;;;5041198;28;20199;-83
2021/01/12 06:59:45;;;;;;;10.60;5.78;;;3.20;99.90;;;;;;5043665;28;20675;-83
2021/01/12 07:02:24;;;;;;;9.63;5.07;;;3.30;99.90;;;;;;5040538;28;20272;-85
2021/01/12 07:04:59;;;;;;;9.88;5.53;;;3.10;99.90;;;;;;5038445;28;20219;-84
2021/01/12 07:07:28;;;;;;;12.05;5.70;;;3.00;99.90;;;;;;5039819;28;20237;-84
2021/01/12 07:09:56;;;;;;;9.77;5.88;;;3.30;99.90;;;;;;5037076;28;20230;-84
2021/01/12 07:12:24;;;;;;;9.07;5.45;;;3.30;99.90;;;;;;5020009;28;20834;-84
2021/01/12 07:14:53;;;;;;;9.02;5.05;;;3.20;99.90;;;;;;5033617;28;20203;-84
2021/01/12 07:17:27;;;;;;;10.90;6.22;;;3.20;99.90;;;;;;5037425;28;20203;-84
2021/01/12 07:20:18;;;;;;;9.85;5.75;;;3.30;99.90;;;;;;5024810;28;20216;-85
2021/01/12 07:22:56;;;;;;;10.02;5.80;;;3.20;99.90;;;;;;5030337;28;20254;-83
2021/01/12 07:25:25;;;;;;;9.52;5.45;;;3.40;99.90;;;;;;5045301;28;20261;-83
2021/01/12 07:28:04;;;;;;;10.02;5.20;;;3.50;99.90;;;;;;5035161;28;20218;-83
2021/01/12 07:30:32;;;;;;;8.88;5.90;;;3.30;99.90;;;;;;5035130;28;20254;-83
2021/01/12 07:33:00;;;;;;;10.05;5.70;;;3.30;99.90;;;;;;5054748;28;20241;-83
2021/01/12 07:35:27;;;;;;;9.85;5.03;;;3.40;99.90;;;;;;5053406;28;20206;-84
2021/01/12 07:37:54;;;;;;;9.30;5.25;;;3.30;99.90;;;;;;5045697;28;20246;-84
2021/01/12 07:40:21;;;;;;;8.52;4.97;;;3.40;99.90;;;;;;5034086;28;20223;-83
2021/01/12 07:42:50;;;;;;;8.75;4.97;;;3.30;99.90;;;;;;5034598;28;20492;-84
2021/01/12 07:45:18;;;;;;;8.57;5.03;;;3.40;99.90;;;;;;5032255;28;20287;-84
2021/01/12 07:47:48;;;;;;;8.10;4.78;;;3.60;99.90;;;;;;5030276;28;20203;-83
2021/01/12 07:50:15;;;;;;;7.47;4.15;;;3.50;99.90;;;;;;5040868;28;20295;-83
2021/01/12 07:52:41;;;;;;;9.73;5.60;;;3.50;99.90;;;;;;5051013;28;20238;-84
2021/01/12 07:55:09;;;;;;;7.90;4.07;;;3.40;99.90;;;;;;5054878;28;20262;-83
2021/01/12 07:57:36;;;;;;;8.35;4.50;;;3.50;99.90;;;;;;5053506;28;20203;-83
2021/01/12 08:00:06;;;;;;;7.05;4.70;;;3.50;99.90;;;;;;5028917;28;20200;-82
2021/01/12 08:02:33;;;;;;;8.70;5.45;;;3.70;99.90;;;;;;5026698;28;20223;-82
2021/01/12 08:05:04;;;;;;;7.78;4.93;;;3.50;99.90;;;;;;5024854;28;20224;-83
2021/01/12 08:07:30;;;;;;;8.68;5.00;;;3.60;99.90;;;;;;5032584;28;20231;-84
2021/01/12 08:09:58;;;;;;;9.10;4.90;;;3.60;99.90;;;;;;5040233;28;20208;-83
2021/01/12 08:12:25;;;;;;;8.13;5.10;;;3.70;99.90;;;;;;5028725;28;20230;-83
2021/01/12 08:14:53;;;;;;;20.25;5.55;;;4.00;99.90;;;;;;5026377;28;20647;-83
2021/01/12 08:17:26;;;;;;;7.70;4.72;;;3.70;99.90;;;;;;5042479;28;20203;-83
2021/01/12 08:19:54;;;;;;;7.15;3.92;;;3.60;99.90;;;;;;5041795;28;20218;-84
2021/01/12 08:22:21;;;;;;;9.70;4.95;;;4.00;99.90;;;;;;5025091;28;20220;-84
2021/01/12 08:24:48;;;;;;;11.30;5.30;;;3.70;99.90;;;;;;5026490;28;20234;-84
2021/01/12 08:27:18;;;;;;;6.60;4.20;;;3.70;99.90;;;;;;5045684;28;20215;-84
2021/01/12 08:29:45;;;;;;;10.38;5.10;;;3.70;99.90;;;;;;5045685;28;20203;-83
2021/01/12 08:32:16;;;;;;;9.45;5.13;;;3.80;99.90;;;;;;5024582;28;20227;-83
2021/01/12 08:34:55;;;;;;;6.78;3.38;;;4.00;99.90;;;;;;5023889;28;20876;-83
2021/01/12 08:37:23;;;;;;;8.45;4.35;;;3.80;99.90;;;;;;5025194;28;20678;-84
2021/01/12 08:39:51;;;;;;;7.25;3.70;;;4.30;99.90;;;;;;5019544;28;20203;-83
2021/01/12 08:42:19;;;;;;;7.22;4.05;;;4.00;99.90;;;;;;5021341;28;20232;-83
2021/01/12 08:44:46;;;;;;;7.53;3.97;;;3.90;99.90;;;;;;5026472;28;20254;-83
2021/01/12 08:47:13;;;;;;;6.60;3.70;;;4.20;99.90;;;;;;5029035;28;20223;-82
2021/01/12 08:49:40;;;;;;;7.45;4.15;;;4.30;99.90;;;;;;5030474;28;20208;-82
2021/01/12 08:52:08;;;;;;;7.22;3.78;;;4.20;99.90;;;;;;5030179;28;20232;-83
2021/01/12 08:54:35;;;;;;;8.18;3.95;;;4.30;99.90;;;;;;5025911;28;20208;-83
2021/01/12 08:57:03;;;;;;;5.30;3.25;;;4.10;99.90;;;;;;5024368;28;20299;-83
2021/01/12 08:59:31;;;;;;;7.15;3.05;;;4.10;99.90;;;;;;5028524;28;20199;-83
2021/01/12 09:01:58;;;;;;;6.30;3.40;;;4.10;99.90;;;;;;5043400;28;20227;-82
2021/01/12 09:04:27;;;;;;;5.97;3.20;;;4.10;99.90;;;;;;5038604;28;20199;-82
2021/01/12 09:07:02;;;;;;;7.32;3.70;;;4.20;99.90;;;;;;5041625;28;20696;-83
2021/01/12 09:09:29;;;;;;;7.47;3.42;;;4.30;99.90;;;;;;5036545;28;20233;-83
2021/01/12 09:11:59;;;;;;;5.68;2.80;;;4.40;99.90;;;;;;5020397;28;20310;-85
2021/01/12 09:14:27;;;;;;;6.03;3.10;;;4.30;99.90;;;;;;5028010;28;20210;-84
2021/01/12 09:16:59;;;;;;;6.22;3.53;;;4.20;99.90;;;;;;5038887;28;20203;-84
2021/01/12 09:19:34;;;;;;;4.95;2.33;;;4.40;99.90;;;;;;5028614;28;20552;-84
2021/01/12 09:22:15;;;;;;;5.45;2.90;;;4.30;99.90;;;;;;5020320;28;20229;-83
2021/01/12 09:24:47;;;;;;;4.85;2.90;;;4.30;99.90;;;;;;5036101;28;20254;-83
2021/01/12 09:27:18;;;;;;;5.25;2.88;;;4.40;99.90;;;;;;5044045;28;20226;-83
2021/01/12 09:29:45;;;;;;;5.60;2.83;;;4.50;99.90;;;;;;5043453;28;20277;-82
2021/01/12 09:32:12;;;;;;;4.68;2.30;;;4.50;99.90;;;;;;5034377;28;20250;-82
2021/01/12 09:34:41;;;;;;;4.97;2.55;;;4.40;99.90;;;;;;5024535;28;20231;-83
2021/01/12 09:37:18;;;;;;;5.55;2.45;;;4.30;99.90;;;;;;5022774;28;20199;-82
2021/01/12 09:39:51;;;;;;;5.20;2.50;;;4.50;99.90;;;;;;5019769;28;20211;-82
2021/01/12 09:42:24;;;;;;;5.00;2.72;;;4.50;99.90;;;;;;5027503;28;20234;-82
2021/01/12 09:44:51;;;;;;;5.07;2.40;;;4.40;99.90;;;;;;5033642;28;20218;-84
2021/01/12 09:47:17;;;;;;;5.65;1.63;;;4.50;99.90;;;;;;5024815;28;20724;-83
2021/01/12 09:49:44;;;;;;;3.60;1.65;;;4.60;99.90;;;;;;5026924;28;20231;-82
2021/01/12 09:52:11;;;;;;;5.22;2.20;;;4.70;99.90;;;;;;5028983;28;20219;-82
2021/01/12 09:54:41;;;;;;;4.05;1.50;;;4.50;99.90;;;;;;5037533;28;20200;-81
2021/01/12 09:57:09;;;;;;;7.90;2.38;;;4.60;99.90;;;;;;5035830;28;20203;-83
2021/01/12 09:59:35;;;;;;;3.60;1.73;;;4.50;99.90;;;;;;5049802;28;20242;-84
2021/01/12 10:02:02;;;;;;;3.20;1.30;;;4.50;99.90;;;;;;5031361;28;20223;-83
2021/01/12 10:04:28;;;;;;;3.65;1.60;;;4.80;99.90;;;;;;5036655;28;20192;-82
2021/01/12 10:06:56;;;;;;;3.60;1.52;;;4.60;99.90;;;;;;5034673;28;20230;-84
2021/01/12 10:09:22;;;;;;;4.25;2.05;;;4.50;99.90;;;;;;5025842;28;20202;-85
2021/01/12 10:11:49;;;;;;;6.25;2.67;;;4.80;99.90;;;;;;5040783;28;20285;-86
2021/01/12 10:14:18;;;;;;;5.65;1.75;;;4.70;99.90;;;;;;5026261;28;20687;-83
2021/01/12 10:16:45;;;;;;;3.90;1.75;;;4.60;99.90;;;;;;5000809;28;20205;-84
2021/01/12 10:19:12;;;;;;;3.85;1.60;;;4.50;99.90;;;;;;5008438;28;20203;-85
2021/01/12 10:21:38;;;;;;;4.15;1.80;;;4.70;99.90;;;;;;5028569;28;20215;-86
2021/01/12 10:24:06;;;;;;;3.53;1.42;;;4.50;99.90;;;;;;5037244;28;20200;-86
2021/01/12 10:26:33;;;;;;;4.47;1.83;;;4.40;99.90;;;;;;5047807;28;20226;-86
2021/01/12 10:29:00;;;;;;;3.55;1.55;;;4.60;99.90;;;;;;5030086;28;20262;-86
2021/01/12 10:31:29;;;;;;;5.53;1.60;;;4.70;99.90;;;;;;5033291;28;20192;-83
2021/01/12 10:33:56;;;;;;;3.03;1.38;;;4.40;99.90;;;;;;5033943;28;20200;-87
2021/01/12 10:36:23;;;;;;;3.10;1.40;;;4.50;99.90;;;;;;5036882;28;20693;-85
2021/01/12 10:38:49;;;;;;;3.55;1.48;;;4.40;99.90;;;;;;5044174;28;20207;-84
2021/01/12 10:41:16;;;;;;;3.35;1.30;;;4.50;99.90;;;;;;5016271;28;20670;-85
2021/01/12 10:43:43;;;;;;;3.38;1.67;;;4.50;99.90;;;;;;5025440;28;20257;-82
2021/01/12 10:46:10;;;;;;;4.65;1.55;;;4.40;99.90;;;;;;5022207;28;20234;-83
2021/01/12 10:48:39;;;;;;;2.80;1.20;;;4.50;99.90;;;;;;5001355;28;20217;-82
2021/01/12 10:51:06;;;;;;;2.85;1.30;;;4.50;99.90;;;;;;5015322;28;20203;-81
2021/01/12 10:53:32;;;;;;;2.55;1.25;;;4.60;99.90;;;;;;5038832;28;20219;-83
2021/01/12 10:56:01;;;;;;;2.60;1.10;;;4.50;99.90;;;;;;5040782;28;20204;-83
2021/01/12 10:58:28;;;;;;;5.00;1.27;;;4.50;99.90;;;;;;5032504;28;20227;-85
2021/01/12 11:00:58;;;;;;;3.13;1.20;;;4.60;99.90;;;;;;5023651;28;20200;-83
2021/01/12 11:03:24;;;;;;;6.43;2.00;;;4.40;99.90;;;;;;5018697;28;20228;-84
2021/01/12 11:05:53;;;;;;;6.80;1.85;;;4.60;99.90;;;;;;5023224;28;20216;-85
2021/01/12 11:08:20;;;;;;;4.90;1.45;;;4.40;99.90;;;;;;5024517;28;20585;-84
2021/01/12 11:10:47;;;;;;;2.42;0.93;;;4.40;99.90;;;;;;5019139;28;20214;-82
2021/01/12 11:13:13;;;;;;;3.28;1.10;;;4.40;99.90;;;;;;5019812;28;20224;-83
2021/01/12 11:15:42;;;;;;;3.00;1.27;;;4.50;99.90;;;;;;5019946;28;20283;-83
2021/01/12 11:18:10;;;;;;;3.08;1.10;;;4.60;99.90;;;;;;5032513;28;20210;-84
2021/01/12 11:20:37;;;;;;;2.58;1.10;;;4.50;99.90;;;;;;5026632;28;20207;-85
2021/01/12 11:23:05;;;;;;;3.13;1.20;;;4.50;99.90;;;;;;5031840;28;20224;-84
2021/01/12 11:25:32;;;;;;;4.53;1.30;;;4.50;99.90;;;;;;5032649;28;20238;-83
2021/01/12 11:27:58;;;;;;;3.20;1.13;;;4.40;99.90;;;;;;5050765;28;20202;-83
2021/01/12 11:30:26;;;;;;;2.67;1.10;;;4.50;99.90;;;;;;5038596;28;20215;-83
2021/01/12 11:32:55;;;;;;;3.22;1.10;;;4.40;99.90;;;;;;5030293;28;20224;-84
2021/01/12 11:35:23;;;;;;;2.78;0.80;;;4.50;99.90;;;;;;5042427;28;20227;-86
2021/01/12 11:37:49;;;;;;;2.35;1.02;;;4.40;99.90;;;;;;5032166;28;20542;-84
2021/01/12 11:40:17;;;;;;;2.78;1.23;;;4.60;99.90;;;;;;5017920;28;20208;-85
2021/01/12 11:42:44;;;;;;;3.20;1.05;;;4.60;99.90;;;;;;5020116;28;20236;-85
2021/01/12 11:45:12;;;;;;;3.60;1.02;;;4.60;99.90;;;;;;5032198;28;20370;-84
2021/01/12 11:47:38;;;;;;;3.40;1.23;;;4.70;99.90;;;;;;5019429;28;20235;-84
2021/01/12 11:50:08;;;;;;;3.30;1.08;;;4.60;99.90;;;;;;5019310;28;20235;-86
2021/01/12 11:52:36;;;;;;;2.28;0.88;;;4.80;99.90;;;;;;5020374;28;20228;-85
2021/01/12 11:55:04;;;;;;;3.20;1.00;;;4.60;99.90;;;;;;5015779;28;20719;-85
2021/01/12 11:57:31;;;;;;;3.00;0.95;;;4.60;99.90;;;;;;5001153;28;20212;-83
2021/01/12 11:59:58;;;;;;;2.80;0.80;;;4.70;99.90;;;;;;5015491;28;20207;-84
2021/01/12 12:02:25;;;;;;;2.50;1.00;;;4.60;99.90;;;;;;5020073;28;20222;-83
2021/01/12 12:04:51;;;;;;;2.88;1.50;;;4.60;99.90;;;;;;5021896;28;20215;-85
2021/01/12 12:07:18;;;;;;;2.42;0.90;;;4.80;99.90;;;;;;5015511;28;20283;-84
2021/01/12 12:09:44;;;;;;;4.45;1.63;;;4.60;99.90;;;;;;5036525;28;20222;-85
2021/01/12 12:12:11;;;;;;;3.05;1.60;;;4.60;99.90;;;;;;5044246;28;20225;-85
2021/01/12 12:14:40;;;;;;;3.58;1.02;;;4.60;99.90;;;;;;5031261;28;20204;-84
2021/01/12 12:17:06;;;;;;;2.00;0.60;;;4.70;99.90;;;;;;5035413;28;20192;-85
2021/01/12 12:19:35;;;;;;;3.92;1.40;;;4.70;99.90;;;;;;5045557;28;20207;-86
2021/01/12 12:22:01;;;;;;;2.65;1.23;;;4.70;99.90;;;;;;5035411;28;20224;-86
2021/01/12 12:24:29;;;;;;;2.20;0.80;;;4.70;99.90;;;;;;5022369;28;20207;-84
2021/01/12 12:26:59;;;;;;;2.30;0.80;;;4.90;99.90;;;;;;5019311;28;20301;-85
2021/01/12 12:29:26;;;;;;;3.15;1.10;;;4.70;99.90;;;;;;5018729;28;20204;-86
2021/01/12 12:31:56;;;;;;;2.20;0.80;;;4.80;99.90;;;;;;5016196;28;20286;-87
2021/01/12 12:34:24;;;;;;;2.20;0.80;;;4.80;99.90;;;;;;5020954;28;20193;-86
2021/01/12 12:36:51;;;;;;;4.03;0.90;;;4.60;99.90;;;;;;5017458;28;20196;-88
2021/01/12 12:39:18;;;;;;;3.13;1.00;;;4.60;99.90;;;;;;5019580;28;20208;-85
2021/01/12 12:41:45;;;;;;;3.60;1.05;;;4.80;99.90;;;;;;5021012;28;20235;-85
2021/01/12 12:44:12;;;;;;;2.70;0.95;;;4.70;99.90;;;;;;5019002;28;20266;-85
2021/01/12 12:46:40;;;;;;;3.08;1.10;;;4.60;99.90;;;;;;5024132;28;20269;-85
2021/01/12 12:49:07;;;;;;;2.35;0.82;;;4.60;99.90;;;;;;5043353;28;20206;-84
2021/01/12 12:51:35;;;;;;;4.78;0.95;;;4.50;99.90;;;;;;5031330;28;20235;-85
2021/01/12 12:54:03;;;;;;;2.20;0.70;;;4.40;99.90;;;;;;5025430;28;20215;-83
2021/01/12 12:56:29;;;;;;;3.95;0.80;;;4.50;99.90;;;;;;5041135;28;20207;-87